createdAt,value
2018-03-08T00:00:52.729Z,7.03
2018-03-08T00:04:55.992Z,6.57
2018-03-08T00:08:59.313Z,6.53
2018-03-08T00:13:02.307Z,6.83
2018-03-08T00:17:05.273Z,6.93
2018-03-08T00:21:12.382Z,7.23
2018-03-08T00:25:14.910Z,6.70
2018-03-08T00:29:17.452Z,6.27
2018-03-08T00:33:20.378Z,6.83
2018-03-08T00:37:23.499Z,6.90
2018-03-08T00:41:26.419Z,6.50
2018-03-08T00:45:29.726Z,7.07
2018-03-08T00:49:32.228Z,7.23
2018-03-08T00:53:35.205Z,6.93
2018-03-08T00:57:38.500Z,6.97
2018-03-08T01:01:41.063Z,6.17
2018-03-08T01:05:43.565Z,6.30
2018-03-08T01:09:47.055Z,6.63
2018-03-08T01:13:50.342Z,6.60
2018-03-08T01:17:52.893Z,6.70
2018-03-08T01:21:55.796Z,6.03
2018-03-08T01:25:59.564Z,6.07
2018-03-08T01:30:04.432Z,6.30
2018-03-08T01:34:07.469Z,6.33
2018-03-08T01:38:10.002Z,5.90
2018-03-08T01:42:12.643Z,6.50
2018-03-08T01:46:15.553Z,6.43
2018-03-08T01:50:18.493Z,5.53
2018-03-08T01:54:21.794Z,6.23
2018-03-08T01:58:25.336Z,6.73
2018-03-08T02:02:28.641Z,6.07
2018-03-08T02:06:31.671Z,6.13
2018-03-08T02:10:34.571Z,5.90
2018-03-08T02:14:37.879Z,6.23
2018-03-08T02:18:40.672Z,5.90
2018-03-08T02:22:44.004Z,5.93
2018-03-08T02:26:47.318Z,5.90
2018-03-08T02:30:49.910Z,6.30
2018-03-08T02:34:53.188Z,4.10
2018-03-08T02:38:56.850Z,6.00
2018-03-08T02:43:00.652Z,5.73
2018-03-08T02:47:04.198Z,4.90
2018-03-08T02:51:07.478Z,4.97
2018-03-08T02:55:11.398Z,5.70
2018-03-08T02:59:14.355Z,4.93
2018-03-08T03:03:17.683Z,5.20
2018-03-08T03:07:20.188Z,4.70
2018-03-08T03:11:23.503Z,4.67
2018-03-08T03:15:26.793Z,4.67
2018-03-08T03:19:32.706Z,5.20
2018-03-08T03:23:36.725Z,4.50
2018-03-08T03:27:39.284Z,4.13
2018-03-08T03:31:42.574Z,5.20
2018-03-08T03:35:45.524Z,5.70
2018-03-08T03:39:48.831Z,5.77
2018-03-08T03:43:51.396Z,5.80
2018-03-08T03:47:54.704Z,5.67
2018-03-08T03:51:58.021Z,5.23
2018-03-08T03:56:02.563Z,6.17
2018-03-08T04:00:05.589Z,6.77
2018-03-08T04:04:08.521Z,6.23
2018-03-08T04:08:11.456Z,6.13
2018-03-08T04:12:17.654Z,6.40
2018-03-08T04:16:20.899Z,6.73
2018-03-08T04:20:24.274Z,7.27
2018-03-08T04:24:27.238Z,6.80
2018-03-08T04:28:30.169Z,6.57
2018-03-08T04:32:32.736Z,8.40
2018-03-08T04:36:36.756Z,7.23
2018-03-08T04:40:40.152Z,8.97
2018-03-08T04:44:42.692Z,7.53
2018-03-08T04:48:45.949Z,6.73
2018-03-08T04:52:48.468Z,7.77
2018-03-08T04:56:51.466Z,7.67
2018-03-08T05:00:53.995Z,7.13
2018-03-08T05:04:56.961Z,6.33
2018-03-08T05:09:00.237Z,6.20
2018-03-08T05:13:03.555Z,6.37
2018-03-08T05:17:06.865Z,7.03
2018-03-08T05:21:10.185Z,6.70
2018-03-08T05:25:13.096Z,7.33
2018-03-08T05:29:17.448Z,8.07
2018-03-08T05:33:20.372Z,8.07
2018-03-08T05:37:24.712Z,8.60
2018-03-08T05:41:27.992Z,9.00
2018-03-08T05:45:31.280Z,8.13
2018-03-08T05:49:34.560Z,9.37
2018-03-08T05:53:37.489Z,9.63
2018-03-08T05:57:40.773Z,8.97
2018-03-08T06:01:43.797Z,9.30
2018-03-08T06:05:46.351Z,9.97
2018-03-08T06:09:49.307Z,8.57
2018-03-08T06:13:52.768Z,9.40
2018-03-08T06:17:55.984Z,9.83
2018-03-08T06:22:00.359Z,7.43
2018-03-08T06:26:07.579Z,10.37
2018-03-08T06:30:10.931Z,9.10
2018-03-08T06:34:17.964Z,9.80
2018-03-08T06:38:21.266Z,8.30
2018-03-08T06:42:24.664Z,8.80
2018-03-08T06:46:27.572Z,7.83
2018-03-08T06:50:30.509Z,7.87
2018-03-08T06:59:02.875Z,6.87
2018-03-08T07:03:06.210Z,7.90
2018-03-08T07:07:09.605Z,7.10
2018-03-08T07:11:12.136Z,7.93
2018-03-08T07:15:15.453Z,8.63
2018-03-08T07:19:18.766Z,7.90
2018-03-08T07:23:22.936Z,8.20
2018-03-08T07:27:25.933Z,7.63
2018-03-08T07:31:30.243Z,6.47
2018-03-08T07:35:32.749Z,6.57
2018-03-08T07:39:36.059Z,6.93
2018-03-08T07:43:38.968Z,6.53
2018-03-08T07:47:42.312Z,6.97
2018-03-08T07:51:46.155Z,6.73
2018-03-08T07:55:49.198Z,7.63
2018-03-08T07:59:51.730Z,7.37
2018-03-08T08:03:55.032Z,5.93
2018-03-08T08:08:10.927Z,7.33
2018-03-08T08:12:13.906Z,7.93
2018-03-08T08:16:16.849Z,7.87
2018-03-08T08:20:20.155Z,7.27
2018-03-08T08:24:24.519Z,7.27
2018-03-08T08:28:27.801Z,6.57
2018-03-08T08:32:30.322Z,6.17
2018-03-08T08:36:33.344Z,4.80
2018-03-08T08:40:35.870Z,4.60
2018-03-08T08:44:38.823Z,4.87
2018-03-08T08:48:41.355Z,4.43
2018-03-08T08:52:44.304Z,4.30
2018-03-08T08:56:47.614Z,4.60
2018-03-08T09:00:50.585Z,4.67
2018-03-08T09:04:53.510Z,5.20
2018-03-08T09:08:56.919Z,4.93
2018-03-08T09:12:59.492Z,5.70
2018-03-08T09:17:02.457Z,5.03
2018-03-08T09:21:05.828Z,5.73
2018-03-08T09:25:08.886Z,5.90
2018-03-08T09:29:11.816Z,5.80
2018-03-08T09:33:14.760Z,6.67
2018-03-08T09:37:20.774Z,6.30
2018-03-08T09:41:23.423Z,6.83
2018-03-08T09:45:26.707Z,6.50
2018-03-08T09:49:29.669Z,6.57
2018-03-08T09:53:32.572Z,6.20
2018-03-08T09:57:35.531Z,6.10
2018-03-08T10:01:38.058Z,6.37
2018-03-08T10:05:41.018Z,6.63
2018-03-08T10:09:45.310Z,6.77
2018-03-08T10:13:47.974Z,5.43
2018-03-08T10:17:50.508Z,5.70
2018-03-08T10:21:53.055Z,5.60
2018-03-08T10:25:55.974Z,5.87
2018-03-08T10:29:58.532Z,5.93
2018-03-08T10:34:01.049Z,5.60
2018-03-08T10:38:03.578Z,5.13
2018-03-08T10:42:06.514Z,5.30
2018-03-08T10:46:09.479Z,5.43
2018-03-08T10:50:12.014Z,3.73
2018-03-08T10:54:15.014Z,4.77
2018-03-08T10:58:18.344Z,3.77
2018-03-08T11:02:26.658Z,3.80
2018-03-08T11:06:29.948Z,3.33
2018-03-08T11:10:32.890Z,3.60
2018-03-08T11:14:36.536Z,3.50
2018-03-08T11:18:39.205Z,2.70
2018-03-08T11:22:42.126Z,2.93
2018-03-08T11:26:45.445Z,2.70
2018-03-08T11:30:48.730Z,2.57
2018-03-08T11:34:51.786Z,2.70
2018-03-08T11:38:55.119Z,2.30
2018-03-08T11:42:58.443Z,2.47
2018-03-08T11:47:02.212Z,1.90
2018-03-08T11:51:03.973Z,2.60
2018-03-08T11:55:06.508Z,2.50
2018-03-08T11:59:09.440Z,2.00
2018-03-08T12:03:12.382Z,2.00
2018-03-08T12:07:15.693Z,2.47
2018-03-08T12:11:18.995Z,1.80
2018-03-08T12:15:21.958Z,1.57
2018-03-08T12:19:24.884Z,1.63
2018-03-08T12:23:27.819Z,2.00
2018-03-08T12:27:31.162Z,1.90
2018-03-08T12:31:34.714Z,2.23
2018-03-08T12:35:38.005Z,2.47
2018-03-08T12:39:40.982Z,2.70
2018-03-08T12:43:43.506Z,2.77
2018-03-08T12:47:46.826Z,2.53
2018-03-08T12:51:49.334Z,3.00
2018-03-08T12:55:52.584Z,2.80
2018-03-08T12:59:55.861Z,2.27
2018-03-08T13:03:58.884Z,2.37
2018-03-08T13:08:01.788Z,2.37
2018-03-08T13:12:04.802Z,2.37
2018-03-08T13:16:08.109Z,2.80
2018-03-08T13:20:11.062Z,3.00
2018-03-08T13:24:13.986Z,3.20
2018-03-08T13:28:16.946Z,3.80
2018-03-08T13:32:19.865Z,3.57
2018-03-08T13:36:22.439Z,3.47
2018-03-08T13:40:24.950Z,3.73
2018-03-08T13:44:27.934Z,2.90
2018-03-08T13:48:30.866Z,3.70
2018-03-08T13:52:35.301Z,3.07
2018-03-08T13:56:38.207Z,3.30
2018-03-08T14:00:41.238Z,3.07
2018-03-08T14:04:43.752Z,3.20
2018-03-08T14:08:46.722Z,2.73
2018-03-08T14:12:49.708Z,3.00
2018-03-08T14:16:52.226Z,3.33
2018-03-08T14:20:55.150Z,2.73
2018-03-08T14:24:58.490Z,2.43
2018-03-08T14:29:01.467Z,2.80
2018-03-08T14:33:04.777Z,2.93
2018-03-08T14:41:16.093Z,2.07
2018-03-08T14:45:19.011Z,2.27
2018-03-08T14:49:22.728Z,2.50
2018-03-08T14:53:25.274Z,1.90
2018-03-08T14:57:28.595Z,2.10
2018-03-08T15:01:31.566Z,2.37
2018-03-08T15:05:34.146Z,2.10
2018-03-08T15:09:37.432Z,1.87
2018-03-08T15:13:40.749Z,2.40
2018-03-08T15:17:43.679Z,2.00
2018-03-08T15:21:46.991Z,1.70
2018-03-08T15:25:49.512Z,2.07
2018-03-08T15:29:52.458Z,1.90
2018-03-08T15:33:55.751Z,1.70
2018-03-08T15:37:58.720Z,1.70
2018-03-08T15:42:02.107Z,1.57
2018-03-08T15:46:05.435Z,1.80
2018-03-08T15:50:08.720Z,1.77
2018-03-08T15:54:11.681Z,1.70
2018-03-08T15:58:14.979Z,1.57
2018-03-08T16:02:23.768Z,1.70
2018-03-08T16:11:07.806Z,1.63
2018-03-08T16:15:10.846Z,1.40
2018-03-08T16:19:13.444Z,2.03
2018-03-08T16:23:17.936Z,1.70
2018-03-08T16:27:22.406Z,1.87
2018-03-08T16:31:24.928Z,1.70
2018-03-08T16:35:28.148Z,1.50
2018-03-08T16:39:30.674Z,1.50
2018-03-08T16:43:34.896Z,1.40
2018-03-08T16:47:40.889Z,1.33
2018-03-08T16:51:43.937Z,1.83
2018-03-08T16:55:46.848Z,1.70
2018-03-08T16:59:50.248Z,1.50
2018-03-08T17:03:53.582Z,1.73
2018-03-08T17:07:56.976Z,1.80
2018-03-08T17:11:59.890Z,1.60
2018-03-08T17:16:02.527Z,1.60
2018-03-08T17:20:06.315Z,1.80
2018-03-08T17:24:09.299Z,1.40
2018-03-08T17:28:11.804Z,1.50
2018-03-08T17:32:14.372Z,1.40
2018-03-08T17:36:18.414Z,0.50
2018-03-08T17:40:21.840Z,1.10
2018-03-08T17:44:24.365Z,0.90
2018-03-08T17:48:26.936Z,1.10
2018-03-08T17:52:29.840Z,1.13
2018-03-08T17:56:33.273Z,1.47
2018-03-08T18:00:36.193Z,1.40
2018-03-08T18:04:40.320Z,0.93
2018-03-08T18:08:43.261Z,0.67
2018-03-08T18:12:46.576Z,0.70
2018-03-08T18:16:49.878Z,0.87
2018-03-08T18:20:53.306Z,0.90
2018-03-08T18:24:56.255Z,1.00
2018-03-08T18:28:59.250Z,1.57
2018-03-08T18:33:02.205Z,1.33
2018-03-08T18:37:08.697Z,1.30
2018-03-08T18:41:11.615Z,1.33
2018-03-08T18:45:14.948Z,1.30
2018-03-08T18:49:17.864Z,0.80
2018-03-08T18:53:23.119Z,1.17
2018-03-08T18:57:26.422Z,0.83
2018-03-08T19:01:29.368Z,1.53
2018-03-08T19:05:32.292Z,0.90
2018-03-08T19:09:35.718Z,0.90
2018-03-08T19:13:39.018Z,0.80
2018-03-08T19:17:42.347Z,1.30
2018-03-08T19:21:45.843Z,0.97
2018-03-08T19:25:48.877Z,0.90
2018-03-08T19:29:52.195Z,1.17
2018-03-08T19:33:55.757Z,0.70
2018-03-08T19:37:58.698Z,0.93
2018-03-08T19:42:02.126Z,0.87
2018-03-08T19:46:04.666Z,1.00
2018-03-08T19:50:07.222Z,0.90
2018-03-08T19:54:10.197Z,1.17
2018-03-08T19:58:13.132Z,1.20
2018-03-08T20:02:16.123Z,1.20
2018-03-08T20:06:18.760Z,1.30
2018-03-08T20:10:21.343Z,1.20
2018-03-08T20:14:23.920Z,1.07
2018-03-08T20:18:27.212Z,1.50
2018-03-08T20:22:30.262Z,2.17
2018-03-08T20:26:32.778Z,1.60
2018-03-08T20:30:35.332Z,1.73
2018-03-08T20:34:39.666Z,1.67
2018-03-08T20:38:42.248Z,2.27
2018-03-08T20:42:45.179Z,1.53
2018-03-08T20:46:48.566Z,2.90
2018-03-08T20:51:01.779Z,1.80
2018-03-08T20:55:04.376Z,2.27
2018-03-08T20:59:07.376Z,2.00
2018-03-08T21:03:10.754Z,1.93
2018-03-08T21:07:14.056Z,2.40
2018-03-08T21:11:16.606Z,2.93
2018-03-08T21:15:19.967Z,2.23
2018-03-08T21:19:22.904Z,2.50
2018-03-08T21:23:26.227Z,3.10
2018-03-08T21:27:28.810Z,1.43
2018-03-08T21:31:32.094Z,1.20
2018-03-08T21:35:35.734Z,1.00
2018-03-08T21:39:39.820Z,1.33
2018-03-08T21:43:42.378Z,1.13
2018-03-08T21:47:44.931Z,1.20
2018-03-08T21:51:48.236Z,1.80
2018-03-08T21:55:51.160Z,1.30
2018-03-08T21:59:55.237Z,1.47
2018-03-08T22:03:57.757Z,1.53
2018-03-08T22:08:00.322Z,1.60
2018-03-08T22:12:03.271Z,1.40
2018-03-08T22:16:06.312Z,1.43
2018-03-08T22:20:09.884Z,1.60
2018-03-08T22:24:12.827Z,1.77
2018-03-08T22:28:17.735Z,1.70
2018-03-08T22:32:21.816Z,1.80
2018-03-08T22:36:25.097Z,1.90
2018-03-08T22:44:37.196Z,1.70
2018-03-08T22:48:39.775Z,1.90
2018-03-08T22:52:42.719Z,1.80
2018-03-08T22:56:45.260Z,1.83
2018-03-08T23:00:48.186Z,2.20
2018-03-08T23:04:51.870Z,2.40
2018-03-08T23:08:54.787Z,1.87
2018-03-08T23:12:57.761Z,2.23
2018-03-08T23:17:00.280Z,1.77
2018-03-08T23:21:02.831Z,2.20
2018-03-08T23:25:06.127Z,3.10
2018-03-08T23:29:09.530Z,2.50
2018-03-08T23:33:12.841Z,2.40
2018-03-08T23:37:16.145Z,2.37
2018-03-08T23:41:18.678Z,2.20
2018-03-08T23:45:22.656Z,2.40
2018-03-08T23:49:25.944Z,2.53
2018-03-08T23:53:28.903Z,2.23
2018-03-08T23:57:31.436Z,2.20
